sensor_id;sensor_type;location;lat;lon;timestamp;temperature;humidity
38221;DHT22;24023;51.280;7.148;2023-07-20T00:00:11;17.6;99.4
38221;DHT22;24023;51.280;7.148;2023-07-20T00:05:06;17.2;99.4
38221;DHT22;24023;51.280;7.148;2023-07-20T00:10:08;17.2;99.4
38221;DHT22;24023;51.280;7.148;2023-07-20T00:15:07;16.9;99.4
38221;DHT22;24023;51.280;7.148;2023-07-20T00:20:08;16.9;99.4
38221;DHT22;24023;51.280;7.148;2023-07-20T00:25:05;16.9;98.7
38221;DHT22;24023;51.280;7.148;2023-07-20T00:30:10;16.9;98.7
38221;DHT22;24023;51.280;7.148;2023-07-20T00:35:06;16.9;98.7
38221;DHT22;24023;51.280;7.148;2023-07-20T00:40:08;16.8;99.6
38221;DHT22;24023;51.280;7.148;2023-07-20T00:45:10;16.8;99.6
38221;DHT22;24023;51.280;7.148;2023-07-20T00:50:09;16.5;99.0
38221;DHT22;24023;51.280;7.148;2023-07-20T00:55:07;16.5;99.0
38221;DHT22;24023;51.280;7.148;2023-07-20T01:00:10;16.5;99.0
38221;DHT22;24023;51.280;7.148;2023-07-20T01:05:08;16.6;99.4
38221;DHT22;24023;51.280;7.148;2023-07-20T01:10:12;16.6;99.8
38221;DHT22;24023;51.280;7.148;2023-07-20T01:15:08;16.6;99.8
38221;DHT22;24023;51.280;7.148;2023-07-20T01:20:10;16.6;99.7
38221;DHT22;24023;51.280;7.148;2023-07-20T01:25:15;16.6;99.7
38221;DHT22;24023;51.280;7.148;2023-07-20T01:30:21;16.6;99.7
38221;DHT22;24023;51.280;7.148;2023-07-20T01:35:07;16.8;99.5
38221;DHT22;24023;51.280;7.148;2023-07-20T01:40:09;16.8;99.5
38221;DHT22;24023;51.280;7.148;2023-07-20T01:45:09;16.9;99.9
38221;DHT22;24023;51.280;7.148;2023-07-20T01:50:08;17.1;99.7
38221;DHT22;24023;51.280;7.148;2023-07-20T01:55:07;17.1;99.7
38221;DHT22;24023;51.280;7.148;2023-07-20T02:00:11;17.1;99.7
38221;DHT22;24023;51.280;7.148;2023-07-20T02:05:06;17.1;99.7
38221;DHT22;24023;51.280;7.148;2023-07-20T02:10:08;17.1;99.7
38221;DHT22;24023;51.280;7.148;2023-07-20T02:15:09;17.2;99.6
38221;DHT22;24023;51.280;7.148;2023-07-20T02:20:10;17.2;99.6
38221;DHT22;24023;51.280;7.148;2023-07-20T02:25:07;17.4;98.6
38221;DHT22;24023;51.280;7.148;2023-07-20T02:30:10;17.4;99.1
38221;DHT22;24023;51.280;7.148;2023-07-20T02:35:06;17.4;99.1
38221;DHT22;24023;51.280;7.148;2023-07-20T02:40:08;17.5;98.8
38221;DHT22;24023;51.280;7.148;2023-07-20T02:45:10;17.5;98.8
38221;DHT22;24023;51.280;7.148;2023-07-20T02:50:08;17.5;98.8
38221;DHT22;24023;51.280;7.148;2023-07-20T02:55:06;17.3;99.0
38221;DHT22;24023;51.280;7.148;2023-07-20T03:00:11;17.3;99.0
38221;DHT22;24023;51.280;7.148;2023-07-20T03:05:08;17.1;99.0
38221;DHT22;24023;51.280;7.148;2023-07-20T03:10:10;17.1;99.0
38221;DHT22;24023;51.280;7.148;2023-07-20T03:15:08;17.1;99.0
38221;DHT22;24023;51.280;7.148;2023-07-20T03:20:11;17.1;99.0
38221;DHT22;24023;51.280;7.148;2023-07-20T03:25:06;17.1;99.0
38221;DHT22;24023;51.280;7.148;2023-07-20T03:30:10;17.4;99.0
38221;DHT22;24023;51.280;7.148;2023-07-20T03:35:07;17.4;99.0
38221;DHT22;24023;51.280;7.148;2023-07-20T03:40:08;17.1;99.6
38221;DHT22;24023;51.280;7.148;2023-07-20T03:45:09;17.1;99.6
38221;DHT22;24023;51.280;7.148;2023-07-20T03:50:08;17.1;99.6
38221;DHT22;24023;51.280;7.148;2023-07-20T03:55:06;17.4;99.5
38221;DHT22;24023;51.280;7.148;2023-07-20T04:00:13;17.4;99.5
38221;DHT22;24023;51.280;7.148;2023-07-20T04:05:06;17.5;99.0
38221;DHT22;24023;51.280;7.148;2023-07-20T04:10:08;17.5;99.0
38221;DHT22;24023;51.280;7.148;2023-07-20T04:15:08;17.5;99.0
38221;DHT22;24023;51.280;7.148;2023-07-20T04:20:09;17.5;98.6
38221;DHT22;24023;51.280;7.148;2023-07-20T04:25:08;17.5;98.6
38221;DHT22;24023;51.280;7.148;2023-07-20T04:30:10;17.3;98.9
38221;DHT22;24023;51.280;7.148;2023-07-20T04:35:07;17.3;98.9
38221;DHT22;24023;51.280;7.148;2023-07-20T04:40:09;17.3;98.9
38221;DHT22;24023;51.280;7.148;2023-07-20T04:45:09;17.4;98.9
38221;DHT22;24023;51.280;7.148;2023-07-20T04:50:07;17.4;98.9
38221;DHT22;24023;51.280;7.148;2023-07-20T04:55:07;17.3;99.1
38221;DHT22;24023;51.280;7.148;2023-07-20T05:00:12;17.4;98.7
38221;DHT22;24023;51.280;7.148;2023-07-20T05:05:06;17.4;98.7
38221;DHT22;24023;51.280;7.148;2023-07-20T05:10:08;17.4;98.7
38221;DHT22;24023;51.280;7.148;2023-07-20T05:15:08;17.4;99.4
38221;DHT22;24023;51.280;7.148;2023-07-20T05:20:07;17.4;98.6
38221;DHT22;24023;51.280;7.148;2023-07-20T05:25:07;17.4;98.6
38221;DHT22;24023;51.280;7.148;2023-07-20T05:30:09;17.4;98.6
38221;DHT22;24023;51.280;7.148;2023-07-20T05:35:07;17.5;98.9
38221;DHT22;24023;51.280;7.148;2023-07-20T05:40:09;17.5;98.9
38221;DHT22;24023;51.280;7.148;2023-07-20T05:45:09;17.5;98.7
38221;DHT22;24023;51.280;7.148;2023-07-20T05:50:08;17.5;98.7
38221;DHT22;24023;51.280;7.148;2023-07-20T05:55:07;17.8;98.9
38221;DHT22;24023;51.280;7.148;2023-07-20T06:00:16;17.7;98.3
38221;DHT22;24023;51.280;7.148;2023-07-20T06:05:07;17.7;98.3
38221;DHT22;24023;51.280;7.148;2023-07-20T06:10:08;17.7;98.3
38221;DHT22;24023;51.280;7.148;2023-07-20T06:15:24;17.7;99.0
38221;DHT22;24023;51.280;7.148;2023-07-20T06:20:08;17.7;99.0
38221;DHT22;24023;51.280;7.148;2023-07-20T06:25:06;18.1;97.7
38221;DHT22;24023;51.280;7.148;2023-07-20T06:30:09;18.1;97.1
38221;DHT22;24023;51.280;7.148;2023-07-20T06:35:07;18.1;97.1
38221;DHT22;24023;51.280;7.148;2023-07-20T06:40:10;18.3;96.9
38221;DHT22;24023;51.280;7.148;2023-07-20T06:45:10;18.3;96.9
38221;DHT22;24023;51.280;7.148;2023-07-20T06:50:08;18.3;96.9
38221;DHT22;24023;51.280;7.148;2023-07-20T06:55:07;18.5;96.0
38221;DHT22;24023;51.280;7.148;2023-07-20T07:00:11;18.9;97.0
38221;DHT22;24023;51.280;7.148;2023-07-20T07:05:07;18.9;97.0
38221;DHT22;24023;51.280;7.148;2023-07-20T07:10:07;18.8;94.9
38221;DHT22;24023;51.280;7.148;2023-07-20T07:15:08;18.8;94.9
38221;DHT22;24023;51.280;7.148;2023-07-20T07:20:08;18.9;95.3
38221;DHT22;24023;51.280;7.148;2023-07-20T07:25:06;18.9;95.3
38221;DHT22;24023;51.280;7.148;2023-07-20T07:30:10;18.9;95.3
38221;DHT22;24023;51.280;7.148;2023-07-20T07:35:06;19.2;94.2
38221;DHT22;24023;51.280;7.148;2023-07-20T07:40:08;19.1;93.9
38221;DHT22;24023;51.280;7.148;2023-07-20T07:45:09;19.1;93.9
38221;DHT22;24023;51.280;7.148;2023-07-20T07:50:08;18.5;94.4
38221;DHT22;24023;51.280;7.148;2023-07-20T07:55:06;18.5;94.4
38221;DHT22;24023;51.280;7.148;2023-07-20T08:00:16;19.3;93.2
38221;DHT22;24023;51.280;7.148;2023-07-20T08:05:06;19.3;93.2
38221;DHT22;24023;51.280;7.148;2023-07-20T08:10:08;19.1;92.2
38221;DHT22;24023;51.280;7.148;2023-07-20T08:15:10;19.1;92.2
38221;DHT22;24023;51.280;7.148;2023-07-20T08:20:13;19.1;92.2
38221;DHT22;24023;51.280;7.148;2023-07-20T08:25:07;19.9;90.5
38221;DHT22;24023;51.280;7.148;2023-07-20T08:30:10;19.9;90.5
38221;DHT22;24023;51.280;7.148;2023-07-20T08:35:08;19.9;90.5
38221;DHT22;24023;51.280;7.148;2023-07-20T08:40:11;20.7;90.2
38221;DHT22;24023;51.280;7.148;2023-07-20T08:45:13;20.9;87.6
38221;DHT22;24023;51.280;7.148;2023-07-20T08:50:08;20.0;90.6
38221;DHT22;24023;51.280;7.148;2023-07-20T08:55:08;20.0;90.6
38221;DHT22;24023;51.280;7.148;2023-07-20T09:00:14;20.2;90.3
38221;DHT22;24023;51.280;7.148;2023-07-20T09:05:06;20.2;90.3
38221;DHT22;24023;51.280;7.148;2023-07-20T09:10:08;20.2;90.3
38221;DHT22;24023;51.280;7.148;2023-07-20T09:15:08;20.1;90.5
38221;DHT22;24023;51.280;7.148;2023-07-20T09:20:09;20.8;88.3
38221;DHT22;24023;51.280;7.148;2023-07-20T09:25:07;20.6;88.8
38221;DHT22;24023;51.280;7.148;2023-07-20T09:30:11;20.7;86.8
38221;DHT22;24023;51.280;7.148;2023-07-20T09:35:06;20.7;86.8
38221;DHT22;24023;51.280;7.148;2023-07-20T09:40:09;20.7;86.8
38221;DHT22;24023;51.280;7.148;2023-07-20T09:45:09;21.7;83.0
38221;DHT22;24023;51.280;7.148;2023-07-20T09:50:11;21.9;86.9
38221;DHT22;24023;51.280;7.148;2023-07-20T09:55:07;22.0;84.4
38221;DHT22;24023;51.280;7.148;2023-07-20T10:00:14;21.5;83.6
38221;DHT22;24023;51.280;7.148;2023-07-20T10:05:10;21.0;82.3
38221;DHT22;24023;51.280;7.148;2023-07-20T10:10:09;21.4;86.9
38221;DHT22;24023;51.280;7.148;2023-07-20T10:15:11;22.4;83.1
38221;DHT22;24023;51.280;7.148;2023-07-20T10:20:10;21.8;82.4
38221;DHT22;24023;51.280;7.148;2023-07-20T10:25:07;21.4;84.6
38221;DHT22;24023;51.280;7.148;2023-07-20T10:30:10;21.9;80.1
38221;DHT22;24023;51.280;7.148;2023-07-20T10:35:13;22.9;82.5
38221;DHT22;24023;51.280;7.148;2023-07-20T10:40:24;22.7;80.6
38221;DHT22;24023;51.280;7.148;2023-07-20T10:45:10;22.8;79.2
38221;DHT22;24023;51.280;7.148;2023-07-20T10:50:08;22.0;81.5
38221;DHT22;24023;51.280;7.148;2023-07-20T10:55:14;22.1;79.3
38221;DHT22;24023;51.280;7.148;2023-07-20T11:00:14;22.2;78.8
38221;DHT22;24023;51.280;7.148;2023-07-20T11:05:06;22.2;78.8
38221;DHT22;24023;51.280;7.148;2023-07-20T11:10:15;22.6;76.4
38221;DHT22;24023;51.280;7.148;2023-07-20T11:15:07;23.2;74.1
38221;DHT22;24023;51.280;7.148;2023-07-20T11:20:12;24.2;74.1
38221;DHT22;24023;51.280;7.148;2023-07-20T11:25:10;24.9;70.4
38221;DHT22;24023;51.280;7.148;2023-07-20T11:30:15;24.4;73.9
38221;DHT22;24023;51.280;7.148;2023-07-20T11:35:06;24.7;74.9
38221;DHT22;24023;51.280;7.148;2023-07-20T11:40:09;24.6;69.8
38221;DHT22;24023;51.280;7.148;2023-07-20T11:45:10;24.5;70.8
38221;DHT22;24023;51.280;7.148;2023-07-20T11:50:09;23.7;73.5
38221;DHT22;24023;51.280;7.148;2023-07-20T11:55:07;25.3;71.1
38221;DHT22;24023;51.280;7.148;2023-07-20T12:00:12;25.5;68.3
38221;DHT22;24023;51.280;7.148;2023-07-20T12:05:06;24.5;67.4
38221;DHT22;24023;51.280;7.148;2023-07-20T12:10:10;23.6;71.6
38221;DHT22;24023;51.280;7.148;2023-07-20T12:15:15;23.3;71.0
38221;DHT22;24023;51.280;7.148;2023-07-20T12:20:08;22.9;73.4
38221;DHT22;24023;51.280;7.148;2023-07-20T12:25:06;24.3;71.3
38221;DHT22;24023;51.280;7.148;2023-07-20T12:30:09;25.5;66.8
38221;DHT22;24023;51.280;7.148;2023-07-20T12:35:07;26.0;66.0
38221;DHT22;24023;51.280;7.148;2023-07-20T12:40:11;24.9;60.6
38221;DHT22;24023;51.280;7.148;2023-07-20T12:45:11;24.2;63.7
38221;DHT22;24023;51.280;7.148;2023-07-20T12:50:07;24.2;63.7
38221;DHT22;24023;51.280;7.148;2023-07-20T12:55:08;23.3;67.2
38221;DHT22;24023;51.280;7.148;2023-07-20T13:00:14;22.9;69.9
38221;DHT22;24023;51.280;7.148;2023-07-20T13:05:06;24.7;65.9
38221;DHT22;24023;51.280;7.148;2023-07-20T13:10:08;25.5;63.5
38221;DHT22;24023;51.280;7.148;2023-07-20T13:15:08;26.6;64.7
38221;DHT22;24023;51.280;7.148;2023-07-20T13:20:09;25.8;61.4
38221;DHT22;24023;51.280;7.148;2023-07-20T13:25:07;25.9;62.2
38221;DHT22;24023;51.280;7.148;2023-07-20T13:30:12;24.9;60.9
38221;DHT22;24023;51.280;7.148;2023-07-20T13:35:07;24.9;62.7
38221;DHT22;24023;51.280;7.148;2023-07-20T13:40:15;24.8;61.6
38221;DHT22;24023;51.280;7.148;2023-07-20T13:45:09;24.8;61.6
38221;DHT22;24023;51.280;7.148;2023-07-20T13:50:07;24.1;64.5
38221;DHT22;24023;51.280;7.148;2023-07-20T13:55:07;23.1;66.9
38221;DHT22;24023;51.280;7.148;2023-07-20T14:00:12;22.9;69.2
38221;DHT22;24023;51.280;7.148;2023-07-20T14:05:06;22.6;69.3
38221;DHT22;24023;51.280;7.148;2023-07-20T14:10:08;22.6;69.3
38221;DHT22;24023;51.280;7.148;2023-07-20T14:15:09;22.6;69.3
38221;DHT22;24023;51.280;7.148;2023-07-20T14:20:09;23.0;70.6
38221;DHT22;24023;51.280;7.148;2023-07-20T14:25:06;23.1;68.4
38221;DHT22;24023;51.280;7.148;2023-07-20T14:30:10;22.8;71.7
38221;DHT22;24023;51.280;7.148;2023-07-20T14:35:07;22.4;71.2
38221;DHT22;24023;51.280;7.148;2023-07-20T14:40:09;22.5;67.6
38221;DHT22;24023;51.280;7.148;2023-07-20T14:45:10;22.3;67.6
38221;DHT22;24023;51.280;7.148;2023-07-20T14:50:08;22.6;69.8
38221;DHT22;24023;51.280;7.148;2023-07-20T14:55:06;22.4;67.7
38221;DHT22;24023;51.280;7.148;2023-07-20T15:00:12;22.4;67.7
38221;DHT22;24023;51.280;7.148;2023-07-20T15:05:07;22.4;67.7
38221;DHT22;24023;51.280;7.148;2023-07-20T15:10:08;22.9;67.8
38221;DHT22;24023;51.280;7.148;2023-07-20T15:15:08;22.9;67.8
38221;DHT22;24023;51.280;7.148;2023-07-20T15:20:11;23.3;64.7
38221;DHT22;24023;51.280;7.148;2023-07-20T15:25:07;23.3;65.3
38221;DHT22;24023;51.280;7.148;2023-07-20T15:30:09;24.6;63.1
38221;DHT22;24023;51.280;7.148;2023-07-20T15:35:07;25.0;62.7
38221;DHT22;24023;51.280;7.148;2023-07-20T15:40:09;25.3;60.3
38221;DHT22;24023;51.280;7.148;2023-07-20T15:45:09;25.3;62.4
38221;DHT22;24023;51.280;7.148;2023-07-20T15:50:08;25.7;59.5
38221;DHT22;24023;51.280;7.148;2023-07-20T15:55:07;25.0;61.8
38221;DHT22;24023;51.280;7.148;2023-07-20T16:00:13;24.1;62.0
38221;DHT22;24023;51.280;7.148;2023-07-20T16:05:06;23.7;64.1
38221;DHT22;24023;51.280;7.148;2023-07-20T16:10:10;24.6;59.4
38221;DHT22;24023;51.280;7.148;2023-07-20T16:15:08;25.6;57.0
38221;DHT22;24023;51.280;7.148;2023-07-20T16:20:08;26.0;59.4
38221;DHT22;24023;51.280;7.148;2023-07-20T16:25:06;26.3;57.2
38221;DHT22;24023;51.280;7.148;2023-07-20T16:30:09;26.3;57.2
38221;DHT22;24023;51.280;7.148;2023-07-20T16:35:07;26.7;55.1
38221;DHT22;24023;51.280;7.148;2023-07-20T16:40:10;26.6;53.9
38221;DHT22;24023;51.280;7.148;2023-07-20T16:45:11;26.4;56.0
38221;DHT22;24023;51.280;7.148;2023-07-20T16:50:08;25.2;58.7
38221;DHT22;24023;51.280;7.148;2023-07-20T16:55:07;24.2;58.4
38221;DHT22;24023;51.280;7.148;2023-07-20T17:00:12;24.5;59.6
38221;DHT22;24023;51.280;7.148;2023-07-20T17:05:10;23.6;58.1
38221;DHT22;24023;51.280;7.148;2023-07-20T17:10:08;23.4;58.7
38221;DHT22;24023;51.280;7.148;2023-07-20T17:15:07;23.4;58.7
38221;DHT22;24023;51.280;7.148;2023-07-20T17:20:08;23.1;61.7
38221;DHT22;24023;51.280;7.148;2023-07-20T17:25:06;23.1;61.7
38221;DHT22;24023;51.280;7.148;2023-07-20T17:30:11;23.0;63.9
38221;DHT22;24023;51.280;7.148;2023-07-20T17:35:06;23.0;63.9
38221;DHT22;24023;51.280;7.148;2023-07-20T17:40:10;22.7;63.9
38221;DHT22;24023;51.280;7.148;2023-07-20T17:45:10;22.6;66.6
38221;DHT22;24023;51.280;7.148;2023-07-20T17:50:09;22.2;68.9
38221;DHT22;24023;51.280;7.148;2023-07-20T17:55:06;22.2;68.9
38221;DHT22;24023;51.280;7.148;2023-07-20T18:00:12;22.2;67.1
38221;DHT22;24023;51.280;7.148;2023-07-20T18:05:07;22.2;67.1
38221;DHT22;24023;51.280;7.148;2023-07-20T18:10:08;22.0;69.0
38221;DHT22;24023;51.280;7.148;2023-07-20T18:15:08;22.0;69.0
38221;DHT22;24023;51.280;7.148;2023-07-20T18:20:08;21.6;71.1
38221;DHT22;24023;51.280;7.148;2023-07-20T18:25:06;21.4;71.2
38221;DHT22;24023;51.280;7.148;2023-07-20T18:30:09;21.4;71.2
38221;DHT22;24023;51.280;7.148;2023-07-20T18:35:07;21.4;71.2
38221;DHT22;24023;51.280;7.148;2023-07-20T18:40:08;21.1;73.2
38221;DHT22;24023;51.280;7.148;2023-07-20T18:45:11;21.1;73.2
38221;DHT22;24023;51.280;7.148;2023-07-20T18:50:08;20.9;73.8
38221;DHT22;24023;51.280;7.148;2023-07-20T18:55:07;20.7;75.9
38221;DHT22;24023;51.280;7.148;2023-07-20T19:00:14;20.7;75.9
38221;DHT22;24023;51.280;7.148;2023-07-20T19:05:06;20.1;78.0
38221;DHT22;24023;51.280;7.148;2023-07-20T19:10:10;20.1;78.0
38221;DHT22;24023;51.280;7.148;2023-07-20T19:15:08;20.1;78.6
38221;DHT22;24023;51.280;7.148;2023-07-20T19:20:08;20.1;78.6
38221;DHT22;24023;51.280;7.148;2023-07-20T19:30:10;19.9;79.2
38221;DHT22;24023;51.280;7.148;2023-07-20T19:35:07;19.9;79.2
38221;DHT22;24023;51.280;7.148;2023-07-20T19:40:09;19.8;80.9
38221;DHT22;24023;51.280;7.148;2023-07-20T19:45:09;19.8;80.9
38221;DHT22;24023;51.280;7.148;2023-07-20T19:50:08;19.8;80.9
38221;DHT22;24023;51.280;7.148;2023-07-20T19:55:06;19.6;80.7
38221;DHT22;24023;51.280;7.148;2023-07-20T20:00:12;19.6;80.7
38221;DHT22;24023;51.280;7.148;2023-07-20T20:05:07;19.8;79.3
38221;DHT22;24023;51.280;7.148;2023-07-20T20:10:08;19.8;79.3
38221;DHT22;24023;51.280;7.148;2023-07-20T20:15:07;19.6;81.5
38221;DHT22;24023;51.280;7.148;2023-07-20T20:20:09;19.6;81.5
38221;DHT22;24023;51.280;7.148;2023-07-20T20:25:07;19.6;83.8
38221;DHT22;24023;51.280;7.148;2023-07-20T20:30:10;19.5;81.5
38221;DHT22;24023;51.280;7.148;2023-07-20T20:35:07;19.5;79.1
38221;DHT22;24023;51.280;7.148;2023-07-20T20:40:08;19.3;83.9
38221;DHT22;24023;51.280;7.148;2023-07-20T20:45:11;19.4;80.8
38221;DHT22;24023;51.280;7.148;2023-07-20T20:50:09;19.6;78.5
38221;DHT22;24023;51.280;7.148;2023-07-20T20:55:06;19.6;78.5
38221;DHT22;24023;51.280;7.148;2023-07-20T21:00:11;19.6;78.5
38221;DHT22;24023;51.280;7.148;2023-07-20T21:05:08;19.6;78.3
38221;DHT22;24023;51.280;7.148;2023-07-20T21:10:08;19.7;76.2
38221;DHT22;24023;51.280;7.148;2023-07-20T21:15:08;19.7;76.2
38221;DHT22;24023;51.280;7.148;2023-07-20T21:20:07;19.7;83.5
38221;DHT22;24023;51.280;7.148;2023-07-20T21:25:07;19.3;86.0
38221;DHT22;24023;51.280;7.148;2023-07-20T21:30:10;19.3;90.3
38221;DHT22;24023;51.280;7.148;2023-07-20T21:35:07;19.3;90.3
38221;DHT22;24023;51.280;7.148;2023-07-20T21:40:08;18.4;90.8
38221;DHT22;24023;51.280;7.148;2023-07-20T21:45:09;18.4;90.8
38221;DHT22;24023;51.280;7.148;2023-07-20T21:50:07;18.3;92.2
38221;DHT22;24023;51.280;7.148;2023-07-20T21:55:07;18.3;92.2
38221;DHT22;24023;51.280;7.148;2023-07-20T22:00:20;18.3;92.2
38221;DHT22;24023;51.280;7.148;2023-07-20T22:05:07;18.1;93.6
38221;DHT22;24023;51.280;7.148;2023-07-20T22:10:08;18.1;93.6
38221;DHT22;24023;51.280;7.148;2023-07-20T22:15:10;17.7;95.4
38221;DHT22;24023;51.280;7.148;2023-07-20T22:20:08;17.7;95.4
38221;DHT22;24023;51.280;7.148;2023-07-20T22:25:06;17.7;95.4
38221;DHT22;24023;51.280;7.148;2023-07-20T22:30:11;17.8;95.4
38221;DHT22;24023;51.280;7.148;2023-07-20T22:35:07;17.8;95.4
38221;DHT22;24023;51.280;7.148;2023-07-20T22:40:09;18.0;95.2
38221;DHT22;24023;51.280;7.148;2023-07-20T22:45:10;18.0;95.2
38221;DHT22;24023;51.280;7.148;2023-07-20T22:50:08;18.0;95.2
38221;DHT22;24023;51.280;7.148;2023-07-20T22:55:08;17.8;96.4
38221;DHT22;24023;51.280;7.148;2023-07-20T23:00:14;17.8;96.4
38221;DHT22;24023;51.280;7.148;2023-07-20T23:05:06;17.2;97.3
38221;DHT22;24023;51.280;7.148;2023-07-20T23:10:10;17.2;97.3
38221;DHT22;24023;51.280;7.148;2023-07-20T23:15:09;17.2;97.3
38221;DHT22;24023;51.280;7.148;2023-07-20T23:20:18;17.2;97.4
38221;DHT22;24023;51.280;7.148;2023-07-20T23:25:08;17.2;97.4
38221;DHT22;24023;51.280;7.148;2023-07-20T23:30:10;17.3;97.7
38221;DHT22;24023;51.280;7.148;2023-07-20T23:35:08;17.3;97.7
38221;DHT22;24023;51.280;7.148;2023-07-20T23:40:14;16.9;98.0
38221;DHT22;24023;51.280;7.148;2023-07-20T23:45:10;16.9;98.0
38221;DHT22;24023;51.280;7.148;2023-07-20T23:50:10;16.9;98.0
38221;DHT22;24023;51.280;7.148;2023-07-20T23:55:07;16.6;98.3
